Time;durP1;ratioP1;P1;durP2;ratioP2;P2;SDS_P1;SDS_P2;PMS_P1;PMS_P2;Temp;Humidity;BMP_temperature;BMP_pressure;BME280_temperature;BME280_humidity;BME280_pressure;Samples;Min_cycle;Max_cycle;Signal;HPM_P1;HPM_P2
2022/04/09 00:02:20;;;;;;;9.27;6.53;;;;;;;0.97;100.00;98977.84;4949924;28;20305;-61
2022/04/09 00:04:46;;;;;;;7.23;5.37;;;;;;;1.00;100.00;98993.19;4946016;28;20210;-61
2022/04/09 00:07:12;;;;;;;7.50;5.23;;;;;;;1.04;100.00;99009.34;4946439;28;20221;-60
2022/04/09 00:09:37;;;;;;;7.60;5.33;;;;;;;1.02;100.00;99011.88;4945039;28;20269;-61
2022/04/09 00:12:03;;;;;;;7.10;5.17;;;;;;;1.01;100.00;99017.81;4942468;28;20206;-61
2022/04/09 00:14:28;;;;;;;8.83;5.30;;;;;;;1.01;100.00;99022.03;4948044;28;20289;-61
2022/04/09 00:16:54;;;;;;;8.60;5.47;;;;;;;0.99;100.00;99022.03;4950738;28;20187;-62
2022/04/09 00:19:19;;;;;;;10.13;5.83;;;;;;;0.98;100.00;99020.31;4944911;28;20206;-61
2022/04/09 00:21:46;;;;;;;10.53;6.23;;;;;;;0.97;100.00;99023.72;4943272;28;20234;-62
2022/04/09 00:24:12;;;;;;;9.37;5.70;;;;;;;1.00;100.00;99038.16;4943871;28;20196;-60
2022/04/09 00:26:37;;;;;;;12.27;6.70;;;;;;;0.99;100.00;99042.41;4952066;28;20934;-61
2022/04/09 00:29:03;;;;;;;13.13;7.07;;;;;;;0.97;100.00;99051.75;4951719;28;20206;-61
2022/04/09 00:31:28;;;;;;;14.07;7.70;;;;;;;0.96;100.00;99059.38;4948827;28;20281;-61
2022/04/09 00:33:53;;;;;;;13.10;7.53;;;;;;;0.96;100.00;99070.41;4945049;28;20618;-61
2022/04/09 00:36:19;;;;;;;16.73;8.70;;;;;;;0.94;100.00;99071.25;4946212;28;20201;-63
2022/04/09 00:38:44;;;;;;;17.63;8.07;;;;;;;0.93;100.00;99092.44;4950867;28;20264;-63
2022/04/09 00:41:10;;;;;;;22.30;9.97;;;;;;;0.92;100.00;99106.88;4946744;28;20279;-62
2022/04/09 00:43:42;;;;;;;23.83;10.00;;;;;;;0.90;100.00;99111.13;4958396;28;20201;-63
2022/04/09 00:46:12;;;;;;;25.13;10.90;;;;;;;0.88;100.00;99118.72;4949617;28;20199;-62
2022/04/09 00:48:37;;;;;;;17.10;9.30;;;;;;;0.89;100.00;99127.25;4952697;28;20193;-62
2022/04/09 00:51:04;;;;;;;20.27;8.50;;;;;;;0.89;100.00;99138.25;4948275;28;20201;-62
2022/04/09 00:53:37;;;;;;;18.67;9.33;;;;;;;0.89;100.00;99160.34;4951199;28;20269;-62
2022/04/09 00:56:16;;;;;;;21.67;9.93;;;;;;;0.87;100.00;99167.13;4949003;28;20212;-61
2022/04/09 00:58:55;;;;;;;23.27;10.70;;;;;;;0.84;100.00;99178.09;4952288;28;20688;-62
2022/04/09 01:01:22;;;;;;;23.73;10.17;;;;;;;0.84;100.00;99174.72;4952740;28;20196;-62
2022/04/09 01:03:49;;;;;;;27.20;10.27;;;;;;;0.85;100.00;99177.25;4962485;28;20206;-61
2022/04/09 01:06:15;;;;;;;23.77;9.73;;;;;;;0.84;100.00;99192.53;4951631;28;20689;-60
2022/04/09 01:08:40;;;;;;;20.53;9.00;;;;;;;0.83;100.00;99201.00;4949787;28;20183;-61
2022/04/09 01:11:06;;;;;;;20.77;8.70;;;;;;;0.84;100.00;99201.03;4947361;28;20211;-62
2022/04/09 01:13:31;;;;;;;21.53;8.70;;;;;;;0.85;100.00;99212.09;4949278;28;20232;-61
2022/04/09 01:15:56;;;;;;;15.50;7.80;;;;;;;0.85;100.00;99219.72;4947493;28;20195;-61
2022/04/09 01:18:22;;;;;;;13.20;6.93;;;;;;;0.85;100.00;99220.56;4951041;28;20215;-62
2022/04/09 01:20:48;;;;;;;15.60;7.27;;;;;;;0.84;100.00;99226.50;4953912;28;20284;-62
2022/04/09 01:23:13;;;;;;;16.67;7.17;;;;;;;0.84;100.00;99231.59;4950358;28;20377;-64
2022/04/09 01:25:40;;;;;;;11.07;5.83;;;;;;;0.85;100.00;99245.19;4954737;28;20193;-62
2022/04/09 01:28:06;;;;;;;12.13;5.70;;;;;;;0.86;100.00;99247.75;4948831;28;20283;-63
2022/04/09 01:30:31;;;;;;;11.53;5.20;;;;;;;0.88;100.00;99247.78;4951783;28;20223;-61
2022/04/09 01:32:57;;;;;;;9.50;4.80;;;;;;;0.89;100.00;99254.59;4947974;28;20210;-61
2022/04/09 01:35:22;;;;;;;12.40;5.07;;;;;;;0.91;100.00;99275.84;4953936;28;20681;-62
2022/04/09 01:37:48;;;;;;;12.17;5.17;;;;;;;0.89;100.00;99273.28;4950738;28;20218;-61
2022/04/09 01:40:13;;;;;;;10.27;4.80;;;;;;;0.90;100.00;99286.88;4950134;28;20190;-61
2022/04/09 01:42:39;;;;;;;14.63;5.93;;;;;;;0.89;100.00;99300.44;4944089;28;20228;-63
2022/04/09 01:45:07;;;;;;;9.17;4.77;;;;;;;0.88;100.00;99309.78;4947680;28;20188;-62
2022/04/09 01:47:33;;;;;;;10.50;4.73;;;;;;;0.89;100.00;99316.59;4950018;28;20191;-60
2022/04/09 01:49:59;;;;;;;10.67;4.97;;;;;;;0.89;100.00;99324.22;4946112;28;20193;-61
2022/04/09 01:52:24;;;;;;;9.23;4.73;;;;;;;0.89;100.00;99326.78;4947027;28;20202;-61
2022/04/09 01:54:50;;;;;;;13.47;5.40;;;;;;;0.87;100.00;99336.06;4953154;28;20716;-62
2022/04/09 01:57:15;;;;;;;11.10;4.60;;;;;;;0.87;100.00;99347.97;4947097;28;20197;-61
2022/04/09 01:59:43;;;;;;;8.37;4.57;;;;;;;0.86;100.00;99354.75;4948828;28;20902;-62
2022/04/09 02:02:09;;;;;;;15.17;5.83;;;;;;;0.85;100.00;99355.56;4949278;28;20206;-61
2022/04/09 02:04:35;;;;;;;11.67;5.70;;;;;;;0.84;100.00;99360.66;4951914;28;20183;-61
2022/04/09 02:07:00;;;;;;;13.40;5.60;;;;;;;0.82;100.00;99365.75;4952193;28;20194;-61
2022/04/09 02:09:25;;;;;;;19.90;7.53;;;;;;;0.81;100.00;99381.84;4948364;28;20662;-62
2022/04/09 02:11:51;;;;;;;19.77;8.30;;;;;;;0.80;100.00;99384.34;4956069;28;20220;-61
2022/04/09 02:14:16;;;;;;;22.63;9.47;;;;;;;0.78;100.00;99384.34;4948874;28;20281;-60
2022/04/09 02:16:41;;;;;;;27.83;9.90;;;;;;;0.78;100.00;99396.19;4950063;28;20567;-60
2022/04/09 02:19:08;;;;;;;23.60;9.97;;;;;;;0.75;100.00;99397.91;4947116;28;20210;-60
2022/04/09 02:21:34;;;;;;;26.80;11.00;;;;;;;0.78;100.00;99398.75;4947664;28;21053;-61
2022/04/09 02:23:59;;;;;;;41.20;13.57;;;;;;;0.76;100.00;99403.84;4952063;28;20194;-61
2022/04/09 02:26:25;;;;;;;31.33;12.60;;;;;;;0.76;100.00;99414.03;4944926;28;20207;-63
2022/04/09 02:28:52;;;;;;;35.13;14.07;;;;;;;0.72;100.00;99438.59;4943915;28;20194;-61
2022/04/09 02:31:17;;;;;;;34.90;14.70;;;;;;;0.71;100.00;99446.19;4945820;28;20844;-63
2022/04/09 02:33:47;;;;;;;35.83;14.30;;;;;;;0.70;100.00;99452.09;4949450;28;20311;-61
2022/04/09 02:36:13;;;;;;;35.80;14.43;;;;;;;0.73;100.00;99464.91;4946687;28;20265;-60
2022/04/09 02:38:42;;;;;;;38.00;14.63;;;;;;;0.73;100.00;99465.78;4942492;28;20217;-60
2022/04/09 02:41:11;;;;;;;30.50;13.67;;;;;;;0.73;100.00;99470.88;4944518;28;20187;-62
2022/04/09 02:43:37;;;;;;;41.40;15.20;;;;;;;0.73;100.00;99472.53;4951170;28;20580;-61
2022/04/09 02:46:03;;;;;;;38.40;14.93;;;;;;;0.73;100.00;99475.97;4947481;28;20179;-61
2022/04/09 02:48:30;;;;;;;32.00;13.33;;;;;;;0.74;100.00;99481.91;4944485;28;20715;-60
2022/04/09 02:50:56;;;;;;;29.37;13.47;;;;;;;0.77;100.00;99489.59;4948693;28;20909;-60
2022/04/09 02:53:21;;;;;;;33.17;14.17;;;;;;;0.79;100.00;99505.78;4947464;28;20224;-61
2022/04/09 02:55:46;;;;;;;34.53;13.53;;;;;;;0.81;100.00;99500.69;4948918;28;20556;-60
2022/04/09 02:58:12;;;;;;;31.10;12.17;;;;;;;0.83;100.00;99514.31;4946312;28;20740;-61
2022/04/09 03:00:37;;;;;;;30.57;12.07;;;;;;;0.87;100.00;99518.66;4946979;28;20633;-60
2022/04/09 03:03:03;;;;;;;32.63;13.30;;;;;;;0.88;100.00;99523.75;4952463;28;20214;-61
2022/04/09 03:05:29;;;;;;;32.03;13.63;;;;;;;0.92;100.00;99532.31;4952683;28;20241;-60
2022/04/09 03:07:54;;;;;;;42.03;16.47;;;;;;;0.90;100.00;99534.00;4952228;28;20181;-61
2022/04/09 03:10:19;;;;;;;45.73;18.90;;;;;;;0.90;100.00;99536.53;4950003;28;20210;-60
2022/04/09 03:12:46;;;;;;;48.90;19.80;;;;;;;0.87;100.00;99547.50;4949906;28;20216;-59
2022/04/09 03:15:13;;;;;;;47.47;19.30;;;;;;;0.88;100.00;99551.78;4942344;28;20243;-60
2022/04/09 03:17:38;;;;;;;51.13;20.87;;;;;;;0.88;100.00;99556.88;4945867;28;20202;-60
2022/04/09 03:20:05;;;;;;;52.83;20.63;;;;;;;0.87;100.00;99570.44;4951721;28;20673;-61
2022/04/09 03:22:31;;;;;;;58.60;21.90;;;;;;;0.86;100.00;99568.72;4946961;28;20228;-59
2022/04/09 03:24:57;;;;;;;58.97;22.10;;;;;;;0.87;100.00;99574.69;4945159;28;20191;-61
2022/04/09 03:27:23;;;;;;;59.47;22.20;;;;;;;0.85;100.00;99589.09;4947557;28;20189;-60
2022/04/09 03:29:49;;;;;;;63.33;22.47;;;;;;;0.82;100.00;99592.44;4950677;28;20237;-61
2022/04/09 03:32:14;;;;;;;63.47;22.87;;;;;;;0.80;100.00;99590.66;4945306;28;20217;-61
2022/04/09 03:34:40;;;;;;;62.37;22.73;;;;;;;0.76;100.00;99603.34;4948959;28;20199;-60
2022/04/09 03:37:05;;;;;;;56.00;20.77;;;;;;;0.75;100.00;99608.41;4946617;28;20216;-60
2022/04/09 03:39:31;;;;;;;57.13;21.70;;;;;;;0.74;100.00;99614.34;4948955;28;20219;-61
2022/04/09 03:41:56;;;;;;;60.43;21.80;;;;;;;0.72;100.00;99616.88;4948365;28;20253;-60
2022/04/09 03:44:22;;;;;;;60.27;22.07;;;;;;;0.72;100.00;99623.63;4946312;28;20274;-60
2022/04/09 03:46:47;;;;;;;67.97;22.67;;;;;;;0.69;100.00;99628.66;4945695;28;20611;-60
2022/04/09 03:49:13;;;;;;;64.43;22.23;;;;;;;0.67;100.00;99632.88;4946305;28;20660;-60
2022/04/09 03:51:38;;;;;;;64.53;21.20;;;;;;;0.61;100.00;99636.13;4944998;28;20212;-61
2022/04/09 03:54:03;;;;;;;70.63;22.43;;;;;;;0.60;100.00;99645.47;4947393;28;20201;-60
2022/04/09 03:56:29;;;;;;;63.83;20.97;;;;;;;0.56;100.00;99641.13;4943077;28;20197;-61
2022/04/09 03:58:54;;;;;;;55.30;19.53;;;;;;;0.54;100.00;99647.03;4950838;28;20304;-60
2022/04/09 04:01:24;;;;;;;52.30;19.73;;;;;;;0.52;100.00;99651.22;4946205;28;20190;-61
2022/04/09 04:03:51;;;;;;;68.90;21.87;;;;;;;0.47;100.00;99648.59;4947755;28;20551;-61
2022/04/09 04:06:17;;;;;;;69.20;22.27;;;;;;;0.42;100.00;99651.03;4947318;28;20204;-61
2022/04/09 04:08:42;;;;;;;74.67;24.07;;;;;;;0.39;100.00;99661.16;4946961;28;20183;-60
2022/04/09 04:11:07;;;;;;;74.90;25.63;;;;;;;0.36;100.00;99662.78;4952767;28;20202;-61
2022/04/09 04:13:35;;;;;;;67.53;23.23;;;;;;;0.35;100.00;99661.91;4951507;28;20749;-61
2022/04/09 04:16:03;;;;;;;78.30;23.70;;;;;;;0.32;100.00;99673.72;4949559;28;20809;-61
2022/04/09 04:18:28;;;;;;;86.83;26.80;;;;;;;0.27;100.00;99679.53;4950140;28;20245;-60
2022/04/09 04:20:54;;;;;;;86.37;28.63;;;;;;;0.23;100.00;99682.84;4950465;28;20261;-61
2022/04/09 04:23:20;;;;;;;89.23;31.10;;;;;;;0.20;100.00;99684.47;4952016;28;20238;-60
2022/04/09 04:25:45;;;;;;;101.10;30.23;;;;;;;0.14;100.00;99686.06;4956210;28;20189;-60
2022/04/09 04:28:10;;;;;;;93.53;30.00;;;;;;;0.12;100.00;99694.47;4951505;28;20662;-61
2022/04/09 04:30:36;;;;;;;84.37;28.60;;;;;;;0.09;100.00;99702.88;4952787;28;20191;-60
2022/04/09 04:33:01;;;;;;;95.03;28.80;;;;;;;0.07;100.00;99706.22;4949990;28;20212;-61
2022/04/09 04:35:27;;;;;;;78.70;27.77;;;;;;;0.07;100.00;99721.50;4950351;28;20637;-59
2022/04/09 04:37:54;;;;;;;75.73;26.17;;;;;;;0.06;100.00;99732.50;4950621;28;20213;-61
2022/04/09 04:40:19;;;;;;;97.33;30.90;;;;;;;0.11;100.00;99736.88;4953078;28;20559;-59
2022/04/09 04:42:45;;;;;;;104.23;33.47;;;;;;;0.17;100.00;99743.78;4947936;28;20209;-59
2022/04/09 04:45:11;;;;;;;100.43;32.93;;;;;;;0.25;100.00;99749.06;4952428;28;20199;-59
2022/04/09 04:47:44;;;;;;;106.00;33.53;;;;;;;0.34;100.00;99748.41;4944931;29;20228;-59
2022/04/09 04:50:10;;;;;;;104.70;32.93;;;;;;;0.44;100.00;99752.91;4949812;28;20198;-60
2022/04/09 04:52:35;;;;;;;105.60;33.23;;;;;;;0.55;100.00;99759.09;4951012;29;20212;-60
2022/04/09 04:55:01;;;;;;;112.17;35.40;;;;;;;0.66;100.00;99756.81;4953681;28;20197;-59
2022/04/09 04:57:26;;;;;;;108.97;36.40;;;;;;;0.75;100.00;99769.75;4951106;28;20187;-59
2022/04/09 04:59:51;;;;;;;117.00;36.33;;;;;;;0.82;100.00;99778.41;4952009;28;20217;-59
2022/04/09 05:02:17;;;;;;;117.83;38.80;;;;;;;0.87;100.00;99779.34;4949695;29;20221;-59
2022/04/09 05:04:42;;;;;;;130.50;42.60;;;;;;;0.94;100.00;99784.59;4951721;28;20230;-62
2022/04/09 05:07:08;;;;;;;130.53;44.13;;;;;;;0.97;100.00;99797.41;4972121;29;20196;-60
2022/04/09 05:09:35;;;;;;;142.63;45.17;;;;;;;1.00;100.00;99800.88;4970807;28;20180;-59
2022/04/09 05:12:00;;;;;;;144.60;44.63;;;;;;;1.04;100.00;99801.78;4971427;28;20670;-60
2022/04/09 05:14:26;;;;;;;145.90;44.47;;;;;;;1.07;100.00;99809.50;4967528;28;20211;-60
2022/04/09 05:16:51;;;;;;;134.77;44.07;;;;;;;1.09;100.00;99806.97;4952580;28;20595;-60
2022/04/09 05:19:17;;;;;;;139.33;43.33;;;;;;;1.11;100.00;99816.41;4947497;28;20217;-60
2022/04/09 05:21:44;;;;;;;120.60;41.27;;;;;;;1.13;100.00;99808.78;4945505;28;20583;-61
2022/04/09 05:24:10;;;;;;;135.27;43.37;;;;;;;1.14;100.00;99816.44;4958774;28;20182;-62
2022/04/09 05:26:35;;;;;;;118.00;41.17;;;;;;;1.14;100.00;99826.63;4961708;28;20682;-60
2022/04/09 05:29:01;;;;;;;125.47;43.23;;;;;;;1.11;100.00;99823.16;4953834;28;20185;-62
2022/04/09 05:31:27;;;;;;;135.17;39.30;;;;;;;1.08;100.00;99835.84;4948608;29;20187;-60
2022/04/09 05:33:56;;;;;;;115.83;36.37;;;;;;;1.10;100.00;99845.25;4953058;29;20237;-59
2022/04/09 05:36:22;;;;;;;122.10;38.20;;;;;;;1.13;100.00;99850.44;4951066;28;20190;-60
2022/04/09 05:38:47;;;;;;;123.83;39.10;;;;;;;1.18;100.00;99861.56;4947473;28;20249;-59
2022/04/09 05:41:13;;;;;;;143.77;42.80;;;;;;;1.23;100.00;99859.13;4951535;29;20197;-59
2022/04/09 05:43:39;;;;;;;132.73;41.03;;;;;;;1.29;100.00;99869.47;4949734;29;20214;-59
2022/04/09 05:46:05;;;;;;;144.40;40.77;;;;;;;1.35;100.00;99868.72;4951093;29;20193;-59
2022/04/09 05:48:31;;;;;;;140.83;40.30;;;;;;;1.42;100.00;99880.78;4950583;29;20586;-60
2022/04/09 05:50:56;;;;;;;163.97;44.10;;;;;;;1.48;100.00;99896.22;4950702;29;20228;-60
2022/04/09 05:53:21;;;;;;;162.30;45.90;;;;;;;1.52;100.00;99892.91;4952263;29;20217;-60
2022/04/09 05:55:47;;;;;;;169.10;46.77;;;;;;;1.58;100.00;99902.38;4950494;29;20543;-59
2022/04/09 05:58:12;;;;;;;178.83;48.23;;;;;;;1.60;100.00;99902.41;4955288;28;20202;-62
2022/04/09 06:00:38;;;;;;;169.17;46.33;;;;;;;1.64;100.00;99911.84;4953917;29;20198;-60
2022/04/09 06:03:03;;;;;;;205.43;50.97;;;;;;;1.67;100.00;99912.75;4953756;28;20620;-61
2022/04/09 06:05:29;;;;;;;204.47;48.77;;;;;;;1.72;100.00;99920.53;4951892;28;20187;-59
2022/04/09 06:07:54;;;;;;;158.27;43.57;;;;;;;1.79;100.00;99914.72;4952851;29;20175;-60
2022/04/09 06:10:20;;;;;;;168.57;43.77;;;;;;;1.88;100.00;99919.16;4953165;29;20190;-59
2022/04/09 06:12:45;;;;;;;159.87;42.93;;;;;;;1.96;100.00;99917.63;4950272;29;20207;-60
2022/04/09 06:15:10;;;;;;;150.87;40.77;;;;;;;2.03;100.00;99928.81;4952648;29;20187;-60
2022/04/09 06:17:37;;;;;;;156.53;40.73;;;;;;;2.11;100.00;99924.72;4952377;28;20238;-60
2022/04/09 06:20:04;;;;;;;160.97;41.90;;;;;;;2.23;100.00;99930.88;4949939;28;20191;-60
2022/04/09 06:22:30;;;;;;;137.57;39.47;;;;;;;2.37;100.00;99933.72;4950851;29;20206;-59
2022/04/09 06:24:55;;;;;;;141.53;39.27;;;;;;;2.50;100.00;99937.34;4950289;28;20552;-60
2022/04/09 06:27:20;;;;;;;139.73;39.43;;;;;;;2.65;100.00;99934.22;4951657;29;20183;-59
2022/04/09 06:29:46;;;;;;;130.37;40.10;;;;;;;2.81;100.00;99932.75;4948282;28;20597;-60
2022/04/09 06:32:11;;;;;;;125.80;38.27;;;;;;;2.94;100.00;99939.84;4951765;29;20261;-60
2022/04/09 06:34:36;;;;;;;79.93;32.60;;;;;;;3.64;100.00;99945.97;4952426;28;20277;-61
2022/04/09 06:37:02;;;;;;;57.87;28.43;;;;;;;4.40;100.00;99952.03;4944935;28;20282;-60
2022/04/09 06:39:29;;;;;;;52.60;26.63;;;;;;;4.89;100.00;99954.19;4952656;28;20266;-60
2022/04/09 06:41:54;;;;;;;46.27;24.50;;;;;;;5.26;100.00;99953.63;4948035;29;20300;-60
2022/04/09 06:44:19;;;;;;;48.47;24.30;;;;;;;5.31;100.00;99957.13;4947093;29;20208;-60
2022/04/09 06:46:46;;;;;;;44.93;22.97;;;;;;;5.06;100.00;99967.19;4948900;28;20226;-60
2022/04/09 06:49:15;;;;;;;58.50;25.80;;;;;;;4.75;100.00;99959.22;4952067;28;20187;-61
2022/04/09 06:51:41;;;;;;;63.17;26.10;;;;;;;4.47;100.00;99971.72;4947639;28;20264;-60
2022/04/09 06:54:07;;;;;;;54.40;25.77;;;;;;;4.72;100.00;99975.41;4948249;28;20226;-60
2022/04/09 06:56:33;;;;;;;45.43;23.50;;;;;;;5.10;100.00;99980.91;4951121;28;20187;-60
2022/04/09 06:58:58;;;;;;;44.23;23.53;;;;;;;5.40;100.00;99974.28;4949841;28;20218;-60
2022/04/09 07:01:25;;;;;;;52.90;24.53;;;;;;;5.46;100.00;99989.72;4949110;28;20195;-60
2022/04/09 07:03:53;;;;;;;42.77;21.57;;;;;;;5.48;100.00;99982.88;4951513;28;20238;-59
2022/04/09 07:06:19;;;;;;;52.83;24.43;;;;;;;5.41;100.00;99988.84;4951362;28;20278;-60
2022/04/09 07:08:44;;;;;;;42.70;22.57;;;;;;;5.70;100.00;99991.59;4949443;28;20191;-59
2022/04/09 07:11:10;;;;;;;43.00;22.73;;;;;;;6.26;100.00;99984.22;4943617;28;20187;-61
2022/04/09 07:13:35;;;;;;;52.60;24.03;;;;;;;6.24;100.00;99991.03;4947719;28;20234;-60
2022/04/09 07:16:01;;;;;;;49.03;22.87;;;;;;;6.07;100.00;99989.25;4945713;28;20306;-59
2022/04/09 07:18:26;;;;;;;37.37;20.20;;;;;;;6.29;100.00;99993.63;4947895;28;20250;-60
2022/04/09 07:20:51;;;;;;;34.63;19.53;;;;;;;6.55;100.00;99996.28;4945112;28;20233;-59
2022/04/09 07:23:17;;;;;;;41.97;20.00;;;;;;;6.71;100.00;99999.75;4950398;28;20222;-61
2022/04/09 07:25:42;;;;;;;37.53;19.83;;;;;;;6.71;100.00;100003.19;4943911;28;20202;-59
2022/04/09 07:28:09;;;;;;;41.27;21.83;;;;;;;6.70;100.00;99998.91;4947891;28;20195;-59
2022/04/09 07:30:34;;;;;;;51.90;23.47;;;;;;;6.48;100.00;100008.28;4948855;28;20726;-59
2022/04/09 07:33:00;;;;;;;43.33;22.20;;;;;;;6.32;100.00;100009.91;4957302;28;20288;-60
2022/04/09 07:35:26;;;;;;;53.03;25.63;;;;;;;6.14;100.00;100018.41;4951524;28;20282;-59
2022/04/09 07:37:54;;;;;;;62.37;27.27;;;;;;;5.94;100.00;100021.69;4944365;28;20335;-59
2022/04/09 07:40:21;;;;;;;71.80;27.30;;;;;;;5.70;100.00;100030.09;4950083;28;20194;-59
2022/04/09 07:42:46;;;;;;;57.20;25.37;;;;;;;5.60;100.00;100025.75;4954522;28;20220;-60
2022/04/09 07:45:14;;;;;;;51.60;24.17;;;;;;;5.58;100.00;100028.31;4956224;28;20298;-59
2022/04/09 07:47:40;;;;;;;44.60;20.83;;;;;;;5.59;100.00;100029.16;4953262;28;20182;-60
2022/04/09 07:50:10;;;;;;;44.50;20.83;;;;;;;5.60;100.00;100028.31;4949086;28;20226;-60
2022/04/09 07:52:36;;;;;;;59.73;25.73;;;;;;;5.63;100.00;100029.19;4948247;28;20297;-60
2022/04/09 07:55:01;;;;;;;57.70;25.57;;;;;;;5.73;100.00;100035.25;4941605;28;20273;-60
2022/04/09 07:57:27;;;;;;;48.00;23.70;;;;;;;5.93;100.00;100044.81;4942422;28;20194;-61
2022/04/09 07:59:55;;;;;;;48.13;22.23;;;;;;;6.16;100.00;100039.84;4954058;28;20223;-59
2022/04/09 08:02:21;;;;;;;36.30;20.13;;;;;;;6.38;100.00;100045.06;4947300;28;20301;-60
2022/04/09 08:04:47;;;;;;;42.93;21.30;;;;;;;6.54;100.00;100051.97;4954071;28;20195;-60
2022/04/09 08:07:12;;;;;;;41.13;22.70;;;;;;;6.61;100.00;100044.31;4953003;28;20646;-58
2022/04/09 08:09:38;;;;;;;55.17;24.70;;;;;;;6.67;100.00;100042.59;4949132;28;20195;-60
2022/04/09 08:12:03;;;;;;;54.47;24.87;;;;;;;6.59;100.00;100044.28;4944868;28;21027;-59
2022/04/09 08:14:32;;;;;;;58.67;25.63;;;;;;;6.32;100.00;100038.19;4948600;28;20691;-61
2022/04/09 08:16:57;;;;;;;68.37;31.07;;;;;;;6.06;100.00;100035.47;4941628;28;20875;-59
2022/04/09 08:19:23;;;;;;;69.10;31.70;;;;;;;5.90;100.00;100043.06;4956732;28;20234;-59
2022/04/09 08:21:48;;;;;;;81.17;35.90;;;;;;;5.80;100.00;100036.16;4945251;28;20281;-59
2022/04/09 08:24:16;;;;;;;86.33;38.30;;;;;;;5.76;100.00;100047.25;4944349;28;20277;-59
2022/04/09 08:26:41;;;;;;;84.07;36.20;;;;;;;5.71;100.00;100044.66;4936219;28;20198;-59
2022/04/09 08:29:07;;;;;;;96.10;40.50;;;;;;;5.65;100.00;100045.47;4941591;28;20196;-59
2022/04/09 08:31:32;;;;;;;108.60;42.13;;;;;;;5.61;100.00;100050.59;4951414;28;20189;-59
2022/04/09 08:33:58;;;;;;;108.90;44.87;;;;;;;5.58;100.00;100048.88;4950820;28;20201;-58
2022/04/09 08:36:23;;;;;;;103.53;42.17;;;;;;;5.61;100.00;100045.44;4945815;28;20191;-60
2022/04/09 08:38:48;;;;;;;94.50;40.47;;;;;;;5.76;100.00;100045.56;4949723;28;20215;-59
2022/04/09 08:41:15;;;;;;;111.70;42.87;;;;;;;5.84;100.00;100048.19;4949734;28;20611;-59
2022/04/09 08:43:41;;;;;;;102.37;42.23;;;;;;;6.05;100.00;100046.63;4946121;28;20214;-58
2022/04/09 08:46:06;;;;;;;77.40;37.20;;;;;;;6.40;100.00;100043.34;4962179;28;21537;-59
2022/04/09 08:48:32;;;;;;;65.53;32.87;;;;;;;6.97;100.00;100042.66;4944540;28;20199;-58
2022/04/09 08:50:59;;;;;;;52.20;28.03;;;;;;;7.53;100.00;100055.59;4947940;28;20203;-58
2022/04/09 08:53:24;;;;;;;52.20;28.77;;;;;;;7.75;100.00;100053.88;4947516;28;20600;-60
2022/04/09 08:55:51;;;;;;;47.97;24.07;;;;;;;7.69;100.00;100057.31;4952330;28;20203;-59
2022/04/09 08:58:17;;;;;;;38.00;21.50;;;;;;;7.64;100.00;100051.28;4949572;28;20570;-60
2022/04/09 09:00:45;;;;;;;30.40;17.53;;;;;;;7.52;100.00;100051.31;4951022;28;20201;-58
2022/04/09 09:03:14;;;;;;;30.90;15.77;;;;;;;7.44;100.00;100064.19;4951497;28;20242;-59
2022/04/09 09:05:41;;;;;;;26.53;14.63;;;;;;;7.48;100.00;100059.03;4949335;28;20597;-60
2022/04/09 09:08:07;;;;;;;27.87;15.73;;;;;;;7.61;100.00;100056.44;4948246;28;20201;-59
2022/04/09 09:10:34;;;;;;;38.73;18.93;;;;;;;7.70;100.00;100055.56;4948771;28;20192;-59
2022/04/09 09:13:06;;;;;;;31.67;18.17;;;;;;;7.48;100.00;100055.59;4946877;28;20212;-59
2022/04/09 09:15:53;;;;;;;31.83;19.03;;;;;;;7.35;100.00;100070.19;4945513;28;20679;-58
2022/04/09 09:18:21;;;;;;;43.53;22.77;;;;;;;7.27;100.00;100062.44;4946773;28;20217;-58
2022/04/09 09:20:57;;;;;;;50.40;25.17;;;;;;;7.10;100.00;100069.28;4951404;28;20252;-58
2022/04/09 09:23:23;;;;;;;59.93;27.23;;;;;;;6.86;100.00;100070.97;4944699;28;20226;-58
2022/04/09 09:25:54;;;;;;;66.67;27.67;;;;;;;6.75;100.00;100075.19;4945348;28;20769;-58
2022/04/09 09:28:32;;;;;;;56.10;26.00;;;;;;;6.61;100.00;100081.16;4947578;28;20274;-59
2022/04/09 09:30:58;;;;;;;57.37;26.60;;;;;;;6.66;100.00;100087.19;4953936;28;20192;-58
2022/04/09 09:33:25;;;;;;;57.17;27.90;;;;;;;6.91;100.00;100084.69;4952525;28;20979;-58
2022/04/09 09:35:53;;;;;;;60.90;30.83;;;;;;;7.32;100.00;100086.50;4946479;28;20258;-58
2022/04/09 09:38:24;;;;;;;68.47;34.40;;;;;;;7.44;100.00;100089.94;4951735;28;20212;-58
2022/04/09 09:40:51;;;;;;;72.80;34.50;;;;;;;7.51;100.00;100088.22;4953430;28;20202;-58
2022/04/09 09:43:17;;;;;;;77.67;35.63;;;;;;;7.61;100.00;100090.78;4953142;28;20260;-58
2022/04/09 09:45:43;;;;;;;83.03;36.03;;;;;;;7.36;100.00;100095.06;4951915;28;20255;-57
2022/04/09 09:48:23;;;;;;;96.33;38.40;;;;;;;7.04;100.00;100093.28;4939943;28;20191;-60
2022/04/09 09:50:49;;;;;;;80.37;35.37;;;;;;;7.10;100.00;100093.31;4944736;28;20218;-57
2022/04/09 09:53:15;;;;;;;73.33;33.47;;;;;;;7.18;100.00;100098.47;4945817;28;20824;-61
2022/04/09 09:55:45;;;;;;;77.53;34.07;;;;;;;7.15;100.00;100094.16;4950539;28;20197;-57
2022/04/09 09:58:17;;;;;;;80.13;34.50;;;;;;;7.17;100.00;100100.19;4942667;28;20710;-57
2022/04/09 10:00:44;;;;;;;90.07;37.67;;;;;;;7.20;100.00;100099.31;4945641;28;20745;-58
2022/04/09 10:03:14;;;;;;;93.73;38.80;;;;;;;7.28;100.00;100107.06;4939121;28;20213;-58
2022/04/09 10:05:43;;;;;;;86.60;37.67;;;;;;;7.48;100.00;100110.53;4947881;28;20200;-59
2022/04/09 10:08:09;;;;;;;91.80;38.97;;;;;;;7.83;100.00;100108.81;4942503;28;20188;-57
2022/04/09 10:10:35;;;;;;;78.60;37.20;;;;;;;8.28;100.00;100115.63;4945196;28;20192;-58
2022/04/09 10:13:02;;;;;;;74.37;36.50;;;;;;;8.65;100.00;100107.81;4949401;28;20223;-59
2022/04/09 10:15:28;;;;;;;72.57;34.90;;;;;;;8.87;100.00;100115.44;4950560;28;20190;-57
2022/04/09 10:17:57;;;;;;;60.07;29.77;;;;;;;8.81;100.00;100122.38;4950484;28;20201;-59
2022/04/09 10:20:25;;;;;;;59.23;27.70;;;;;;;8.60;100.00;100131.06;4946982;28;20261;-57
2022/04/09 10:22:55;;;;;;;53.63;26.60;;;;;;;8.44;100.00;100126.75;4950853;28;20226;-58
2022/04/09 10:25:24;;;;;;;53.57;25.10;;;;;;;8.35;100.00;100133.66;4940212;28;20198;-57
2022/04/09 10:27:53;;;;;;;47.90;24.13;;;;;;;8.22;100.00;100132.84;4942718;28;20208;-58
2022/04/09 10:30:22;;;;;;;47.43;23.43;;;;;;;8.09;100.00;100123.41;4946138;28;20198;-57
2022/04/09 10:32:51;;;;;;;47.30;24.60;;;;;;;8.09;100.00;100125.97;4948512;28;20217;-59
2022/04/09 10:35:30;;;;;;;49.43;23.27;;;;;;;8.24;100.00;100125.09;4945088;28;20805;-57
2022/04/09 10:38:12;;;;;;;45.70;22.53;;;;;;;8.16;100.00;100134.56;4948546;28;20279;-58
2022/04/09 10:40:43;;;;;;;42.90;20.27;;;;;;;7.93;100.00;100136.31;4953124;28;20209;-57
2022/04/09 10:43:10;;;;;;;39.73;19.20;;;;;;;7.71;100.00;100140.59;4950516;28;20212;-57
2022/04/09 10:46:00;;;;;;;37.73;19.03;;;;;;;7.66;100.00;100137.16;4945165;28;20196;-58
2022/04/09 10:48:28;;;;;;;49.50;24.03;;;;;;;7.82;100.00;100130.28;4947178;28;20207;-57
2022/04/09 10:50:54;;;;;;;48.30;23.13;;;;;;;7.97;100.00;100124.28;4948501;28;20201;-58
2022/04/09 10:53:22;;;;;;;52.83;23.77;;;;;;;8.08;100.00;100122.53;4946205;28;20255;-57
2022/04/09 10:56:17;;;;;;;51.27;23.77;;;;;;;8.31;100.00;100124.22;4952592;28;20691;-58
2022/04/09 10:59:08;;;;;;;57.17;24.87;;;;;;;8.34;100.00;100121.59;4945375;28;20214;-57
2022/04/09 11:01:46;;;;;;;54.63;24.20;;;;;;;8.51;100.00;100123.31;4946629;28;20201;-58
2022/04/09 11:04:27;;;;;;;48.30;22.27;;;;;;;9.03;100.00;100119.66;4951296;28;20198;-56
2022/04/09 11:07:05;;;;;;;39.77;20.43;;;;;;;9.37;100.00;100126.38;4957877;28;20208;-58
2022/04/09 11:09:43;;;;;;;37.33;20.20;;;;;;;9.35;100.00;100117.78;4943670;28;20663;-58
2022/04/09 11:12:09;;;;;;;37.90;18.40;;;;;;;9.29;100.00;100113.50;4946122;28;20210;-57
2022/04/09 11:14:48;;;;;;;41.13;20.60;;;;;;;9.38;100.00;100108.25;4942812;28;20690;-57